sensor_id;sensor_type;location;lat;lon;timestamp;pressure;altitude;pressure_sealevel;temperature;humidity
19674;BME280;9986;50.610;7.230;2023-12-28T00:04:51;145212.34;;;9.68;100.00
19674;BME280;9986;50.610;7.230;2023-12-28T00:15:25;145155.81;;;9.46;100.00
19674;BME280;9986;50.610;7.230;2023-12-28T00:28:37;145131.94;;;9.36;100.00
19674;BME280;9986;50.610;7.230;2023-12-28T00:33:50;145145.75;;;9.42;100.00
19674;BME280;9986;50.610;7.230;2023-12-28T00:41:46;145139.47;;;9.39;100.00
19674;BME280;9986;50.610;7.230;2023-12-28T00:46:59;145192.22;;;9.60;100.00
19674;BME280;9986;50.610;7.230;2023-12-28T00:52:12;145174.66;;;9.53;100.00
19674;BME280;9986;50.610;7.230;2023-12-28T01:00:05;145178.41;;;9.55;100.00
19674;BME280;9986;50.610;7.230;2023-12-28T01:07:56;145136.97;;;9.38;100.00
19674;BME280;9986;50.610;7.230;2023-12-28T01:15:46;145138.25;;;9.39;100.00
19674;BME280;9986;50.610;7.230;2023-12-28T01:28:55;145213.58;;;9.69;100.00
19674;BME280;9986;50.610;7.230;2023-12-28T01:34:13;145158.31;;;9.47;100.00
19674;BME280;9986;50.610;7.230;2023-12-28T01:50:12;145207.31;;;9.66;100.00
19674;BME280;9986;50.610;7.230;2023-12-28T01:55:27;145206.08;;;9.66;100.00
19674;BME280;9986;50.610;7.230;2023-12-28T02:03:25;145165.88;;;9.50;100.00
19674;BME280;9986;50.610;7.230;2023-12-28T02:08:39;145189.75;;;9.59;100.00
19674;BME280;9986;50.610;7.230;2023-12-28T02:13:52;145201.05;;;9.64;100.00
19674;BME280;9986;50.610;7.230;2023-12-28T02:19:08;145185.95;;;9.58;100.00
19674;BME280;9986;50.610;7.230;2023-12-28T02:29:50;145203.56;;;9.65;100.00
19674;BME280;9986;50.610;7.230;2023-12-28T02:48:17;145157.09;;;9.46;100.00
19674;BME280;9986;50.610;7.230;2023-12-28T02:58:46;145110.58;;;9.28;100.00
19674;BME280;9986;50.610;7.230;2023-12-28T03:06:44;145103.08;;;9.25;100.00
19674;BME280;9986;50.610;7.230;2023-12-28T03:17:15;145060.38;;;9.08;100.00
19674;BME280;9986;50.610;7.230;2023-12-28T03:22:28;145067.92;;;9.11;100.00
19674;BME280;9986;50.610;7.230;2023-12-28T03:27:40;145045.28;;;9.02;100.00
19674;BME280;9986;50.610;7.230;2023-12-28T03:32:48;144997.61;;;8.83;100.00
19674;BME280;9986;50.610;7.230;2023-12-28T03:40:39;144954.92;;;8.66;100.00
19674;BME280;9986;50.610;7.230;2023-12-28T03:45:52;145002.63;;;8.85;100.00
19674;BME280;9986;50.610;7.230;2023-12-28T03:51:05;145000.13;;;8.84;100.00
19674;BME280;9986;50.610;7.230;2023-12-28T03:59:01;145006.38;;;8.87;100.00
19674;BME280;9986;50.610;7.230;2023-12-28T04:04:14;144975.03;;;8.74;100.00
19674;BME280;9986;50.610;7.230;2023-12-28T04:06:45;144973.75;;;8.74;100.00
19674;BME280;9986;50.610;7.230;2023-12-28T04:11:58;144939.87;;;8.60;100.00
19674;BME280;9986;50.610;7.230;2023-12-28T04:25:04;144976.25;;;8.75;100.00
19674;BME280;9986;50.610;7.230;2023-12-28T04:30:19;144919.78;;;8.52;100.00
19674;BME280;9986;50.610;7.230;2023-12-28T04:35:32;144852.02;;;8.26;100.00
19674;BME280;9986;50.610;7.230;2023-12-28T04:54:01;144818.13;;;8.12;100.00
19674;BME280;9986;50.610;7.230;2023-12-28T05:09:47;144736.59;;;7.80;100.00
19674;BME280;9986;50.610;7.230;2023-12-28T05:15:00;144730.28;;;7.77;100.00
19674;BME280;9986;50.610;7.230;2023-12-28T05:44:02;144894.69;;;8.42;100.00
19674;BME280;9986;50.610;7.230;2023-12-28T05:54:30;144754.13;;;7.87;100.00
19674;BME280;9986;50.610;7.230;2023-12-28T06:02:20;144833.19;;;8.18;100.00
19674;BME280;9986;50.610;7.230;2023-12-28T06:10:11;144814.33;;;8.11;100.00
19674;BME280;9986;50.610;7.230;2023-12-28T06:18:06;144783.00;;;7.98;100.00
19674;BME280;9986;50.610;7.230;2023-12-28T06:25:56;144879.61;;;8.36;100.00
19674;BME280;9986;50.610;7.230;2023-12-28T06:39:14;144914.75;;;8.50;100.00
19674;BME280;9986;50.610;7.230;2023-12-28T06:44:23;144959.94;;;8.68;100.00
19674;BME280;9986;50.610;7.230;2023-12-28T06:52:14;144914.75;;;8.50;100.00
19674;BME280;9986;50.610;7.230;2023-12-28T06:57:27;144913.52;;;8.50;100.00
19674;BME280;9986;50.610;7.230;2023-12-28T07:02:40;144879.61;;;8.36;100.00
19674;BME280;9986;50.610;7.230;2023-12-28T07:10:32;144888.44;;;8.40;100.00
19674;BME280;9986;50.610;7.230;2023-12-28T07:15:42;144870.84;;;8.33;100.00
19674;BME280;9986;50.610;7.230;2023-12-28T07:47:39;144942.39;;;8.61;100.00
19674;BME280;9986;50.610;7.230;2023-12-28T07:55:30;144917.25;;;8.51;100.00
19674;BME280;9986;50.610;7.230;2023-12-28T08:00:43;144887.16;;;8.39;100.00
19674;BME280;9986;50.610;7.230;2023-12-28T08:16:42;144944.86;;;8.62;100.00
19674;BME280;9986;50.610;7.230;2023-12-28T08:32:31;144909.77;;;8.48;100.00
19674;BME280;9986;50.610;7.230;2023-12-28T08:45:40;144943.63;;;8.62;100.00
19674;BME280;9986;50.610;7.230;2023-12-28T08:50:54;144944.86;;;8.62;100.00
19674;BME280;9986;50.610;7.230;2023-12-28T08:56:17;144997.61;;;8.83;100.00
19674;BME280;9986;50.610;7.230;2023-12-28T09:04:08;145150.78;;;9.44;100.00
19674;BME280;9986;50.610;7.230;2023-12-28T09:09:21;145140.77;;;9.40;100.00
19674;BME280;9986;50.610;7.230;2023-12-28T09:19:54;145168.39;;;9.51;100.00
19674;BME280;9986;50.610;7.230;2023-12-28T09:25:08;145145.75;;;9.42;100.00
19674;BME280;9986;50.610;7.230;2023-12-28T09:30:21;145224.88;;;9.73;100.00
19674;BME280;9986;50.610;7.230;2023-12-28T09:35:34;145268.89;;;9.91;100.00
19674;BME280;9986;50.610;7.230;2023-12-28T09:46:06;145299.09;;;10.03;100.00
19674;BME280;9986;50.610;7.230;2023-12-28T09:51:16;145350.64;;;10.23;100.00
19674;BME280;9986;50.610;7.230;2023-12-28T09:56:31;145392.11;;;10.39;100.00
19674;BME280;9986;50.610;7.230;2023-12-28T10:01:46;145400.89;;;10.43;100.00
19674;BME280;9986;50.610;7.230;2023-12-28T10:09:37;145495.22;;;10.80;100.00
19674;BME280;9986;50.610;7.230;2023-12-28T10:14:44;145487.66;;;10.77;100.00
19674;BME280;9986;50.610;7.230;2023-12-28T10:22:35;145542.98;;;10.99;100.00
19674;BME280;9986;50.610;7.230;2023-12-28T10:35:45;145566.91;;;11.09;100.00
19674;BME280;9986;50.610;7.230;2023-12-28T10:40:58;145535.47;;;10.96;100.00
19674;BME280;9986;50.610;7.230;2023-12-28T10:46:13;145560.63;;;11.06;100.00
19674;BME280;9986;50.610;7.230;2023-12-28T11:04:49;145585.78;;;11.16;100.00
19674;BME280;9986;50.610;7.230;2023-12-28T11:12:49;145566.91;;;11.09;100.00
19674;BME280;9986;50.610;7.230;2023-12-28T11:26:18;145544.28;;;11.00;100.00
19674;BME280;9986;50.610;7.230;2023-12-28T11:31:34;145602.12;;;11.22;100.00
19674;BME280;9986;50.610;7.230;2023-12-28T11:36:51;145597.09;;;11.20;100.00
19674;BME280;9986;50.610;7.230;2023-12-28T12:03:37;145671.33;;;11.50;100.00
19674;BME280;9986;50.610;7.230;2023-12-28T12:14:09;145668.84;;;11.49;100.00
19674;BME280;9986;50.610;7.230;2023-12-28T12:22:00;145695.30;;;11.59;100.00
19674;BME280;9986;50.610;7.230;2023-12-28T12:27:14;145677.66;;;11.52;100.00
19674;BME280;9986;50.610;7.230;2023-12-28T12:32:28;145710.42;;;11.65;100.00
19674;BME280;9986;50.610;7.230;2023-12-28T12:37:43;145739.34;;;11.77;100.00
19674;BME280;9986;50.610;7.230;2023-12-28T12:42:57;145744.38;;;11.79;100.00
19674;BME280;9986;50.610;7.230;2023-12-28T12:56:18;145779.64;;;11.93;100.00
19674;BME280;9986;50.610;7.230;2023-12-28T13:20:12;145767.08;;;11.88;100.00
19674;BME280;9986;50.610;7.230;2023-12-28T13:25:26;145769.55;;;11.89;100.00
19674;BME280;9986;50.610;7.230;2023-12-28T13:35:58;145759.52;;;11.85;100.00
19674;BME280;9986;50.610;7.230;2023-12-28T13:43:45;145789.72;;;11.97;100.00
19674;BME280;9986;50.610;7.230;2023-12-28T13:48:58;145768.31;;;11.88;100.00
19674;BME280;9986;50.610;7.230;2023-12-28T13:54:13;145772.06;;;11.90;100.00
19674;BME280;9986;50.610;7.230;2023-12-28T14:02:11;145802.28;;;12.02;100.00
19674;BME280;9986;50.610;7.230;2023-12-28T14:07:19;145802.28;;;12.02;100.00
19674;BME280;9986;50.610;7.230;2023-12-28T14:15:08;145780.92;;;11.93;100.00
19674;BME280;9986;50.610;7.230;2023-12-28T14:20:21;145778.41;;;11.92;100.00
19674;BME280;9986;50.610;7.230;2023-12-28T14:28:13;145722.97;;;11.70;100.00
19674;BME280;9986;50.610;7.230;2023-12-28T14:38:51;145769.55;;;11.89;100.00
19674;BME280;9986;50.610;7.230;2023-12-28T14:44:04;145628.56;;;11.33;100.00
19674;BME280;9986;50.610;7.230;2023-12-28T14:54:39;145634.84;;;11.35;100.00
19674;BME280;9986;50.610;7.230;2023-12-28T14:59:51;145558.11;;;11.05;100.00
19674;BME280;9986;50.610;7.230;2023-12-28T15:07:50;145512.81;;;10.87;100.00
19674;BME280;9986;50.610;7.230;2023-12-28T15:15:49;145512.81;;;10.87;100.00
19674;BME280;9986;50.610;7.230;2023-12-28T15:23:40;145407.16;;;10.45;100.00
19674;BME280;9986;50.610;7.230;2023-12-28T15:31:31;145418.52;;;10.50;100.00
19674;BME280;9986;50.610;7.230;2023-12-28T15:36:44;145402.19;;;10.43;100.00
19674;BME280;9986;50.610;7.230;2023-12-28T15:41:57;145336.81;;;10.18;100.00
19674;BME280;9986;50.610;7.230;2023-12-28T15:49:49;145354.39;;;10.24;100.00
19674;BME280;9986;50.610;7.230;2023-12-28T16:00:20;145307.89;;;10.06;100.00
19674;BME280;9986;50.610;7.230;2023-12-28T16:13:25;145291.55;;;10.00;100.00
19674;BME280;9986;50.610;7.230;2023-12-28T16:18:34;145439.86;;;10.58;100.00
19674;BME280;9986;50.610;7.230;2023-12-28T16:31:44;145416.00;;;10.49;100.00
19674;BME280;9986;50.610;7.230;2023-12-28T16:37:00;145434.87;;;10.56;100.00
19674;BME280;9986;50.610;7.230;2023-12-28T16:42:14;145434.87;;;10.56;100.00
19674;BME280;9986;50.610;7.230;2023-12-28T16:47:27;145472.56;;;10.71;100.00
19674;BME280;9986;50.610;7.230;2023-12-28T16:52:40;145447.41;;;10.61;100.00
19674;BME280;9986;50.610;7.230;2023-12-28T16:57:53;145472.56;;;10.71;100.00
19674;BME280;9986;50.610;7.230;2023-12-28T17:30:18;145404.70;;;10.44;100.00
19674;BME280;9986;50.610;7.230;2023-12-28T17:38:11;145336.81;;;10.18;100.00
19674;BME280;9986;50.610;7.230;2023-12-28T17:51:17;145419.75;;;10.50;100.00
19674;BME280;9986;50.610;7.230;2023-12-28T17:56:32;145335.53;;;10.17;100.00
19674;BME280;9986;50.610;7.230;2023-12-28T18:01:45;145320.47;;;10.11;100.00
19674;BME280;9986;50.610;7.230;2023-12-28T18:04:17;145306.59;;;10.06;100.00
19674;BME280;9986;50.610;7.230;2023-12-28T18:20:09;145258.83;;;9.87;100.00
19674;BME280;9986;50.610;7.230;2023-12-28T18:28:02;145297.81;;;10.02;100.00
19674;BME280;9986;50.610;7.230;2023-12-28T18:35:54;145163.36;;;9.49;100.00
19674;BME280;9986;50.610;7.230;2023-12-28T18:41:07;145182.20;;;9.56;100.00
19674;BME280;9986;50.610;7.230;2023-12-28T18:46:20;145135.73;;;9.38;100.00
19674;BME280;9986;50.610;7.230;2023-12-28T19:04:50;145160.84;;;9.48;100.00
19674;BME280;9986;50.610;7.230;2023-12-28T19:10:04;145221.13;;;9.72;100.00
19674;BME280;9986;50.610;7.230;2023-12-28T19:28:31;145304.14;;;10.05;100.00
19674;BME280;9986;50.610;7.230;2023-12-28T19:36:22;145262.58;;;9.88;100.00
19674;BME280;9986;50.610;7.230;2023-12-28T19:44:13;145238.75;;;9.79;100.00
19674;BME280;9986;50.610;7.230;2023-12-28T19:52:04;145196.02;;;9.62;100.00
19674;BME280;9986;50.610;7.230;2023-12-28T19:57:17;145285.23;;;9.97;100.00
19674;BME280;9986;50.610;7.230;2023-12-28T20:13:11;145268.89;;;9.91;100.00
19674;BME280;9986;50.610;7.230;2023-12-28T20:28:55;145234.94;;;9.77;100.00
19674;BME280;9986;50.610;7.230;2023-12-28T20:44:40;145193.50;;;9.61;100.00
19674;BME280;9986;50.610;7.230;2023-12-28T20:49:53;145173.42;;;9.53;100.00
19674;BME280;9986;50.610;7.230;2023-12-28T21:05:50;145159.56;;;9.47;100.00
19674;BME280;9986;50.610;7.230;2023-12-28T21:11:04;145168.39;;;9.51;100.00
19674;BME280;9986;50.610;7.230;2023-12-28T21:18:50;145130.70;;;9.36;100.00
19674;BME280;9986;50.610;7.230;2023-12-28T21:31:51;145184.72;;;9.57;100.00
19674;BME280;9986;50.610;7.230;2023-12-28T21:37:04;145188.47;;;9.59;100.00
19674;BME280;9986;50.610;7.230;2023-12-28T21:44:55;145208.55;;;9.67;100.00
19674;BME280;9986;50.610;7.230;2023-12-28T21:52:43;145154.58;;;9.45;100.00
19674;BME280;9986;50.610;7.230;2023-12-28T22:00:34;145119.41;;;9.31;100.00
19674;BME280;9986;50.610;7.230;2023-12-28T22:08:31;145017.67;;;8.91;100.00
19674;BME280;9986;50.610;7.230;2023-12-28T22:13:44;145050.31;;;9.04;100.00
19674;BME280;9986;50.610;7.230;2023-12-28T22:21:35;145045.28;;;9.02;100.00
19674;BME280;9986;50.610;7.230;2023-12-28T22:39:52;145114.38;;;9.29;100.00
19674;BME280;9986;50.610;7.230;2023-12-28T22:50:28;145157.09;;;9.46;100.00
19674;BME280;9986;50.610;7.230;2023-12-28T22:58:22;145118.13;;;9.31;100.00
19674;BME280;9986;50.610;7.230;2023-12-28T23:14:14;145261.34;;;9.88;100.00
19674;BME280;9986;50.610;7.230;2023-12-28T23:27:33;145128.19;;;9.35;100.00
19674;BME280;9986;50.610;7.230;2023-12-28T23:38:02;145138.25;;;9.39;100.00
19674;BME280;9986;50.610;7.230;2023-12-28T23:45:54;145190.98;;;9.60;100.00
19674;BME280;9986;50.610;7.230;2023-12-28T23:53:51;145188.47;;;9.59;100.00
19674;BME280;9986;50.610;7.230;2023-12-28T23:59:00;145184.72;;;9.57;100.00
